Time;durP1;ratioP1;P1;durP2;ratioP2;P2;SDS_P1;SDS_P2;PMS_P1;PMS_P2;Temp;Humidity;BMP_temperature;BMP_pressure;BME280_temperature;BME280_humidity;BME280_pressure;Samples;Min_cycle;Max_cycle;Signal;HPM_P1;HPM_P2
2022/05/27 00:01:14;;;;;;;7.55;3.38;;;18.90;99.90;;;;;;5007069;28;20121;-73
2022/05/27 00:03:40;;;;;;;11.75;3.72;;;18.90;99.90;;;;;;5013173;28;20026;-73
2022/05/27 00:06:06;;;;;;;11.02;3.33;;;18.90;99.90;;;;;;5015828;28;20073;-73
2022/05/27 00:08:32;;;;;;;10.18;3.95;;;18.90;99.90;;;;;;5016142;28;20028;-72
2022/05/27 00:11:00;;;;;;;7.85;3.33;;;18.80;99.90;;;;;;5005115;28;20054;-73
2022/05/27 00:13:27;;;;;;;11.07;4.00;;;18.80;99.90;;;;;;4996371;28;20455;-72
2022/05/27 00:15:53;;;;;;;10.00;3.92;;;18.80;99.90;;;;;;4996130;28;20526;-73
2022/05/27 00:18:19;;;;;;;8.68;3.28;;;18.80;99.90;;;;;;4995976;28;20081;-72
2022/05/27 00:20:45;;;;;;;7.50;3.90;;;18.80;99.90;;;;;;5004088;28;20030;-71
2022/05/27 00:23:11;;;;;;;6.50;3.83;;;18.80;99.90;;;;;;5015646;28;20049;-73
2022/05/27 00:25:37;;;;;;;6.18;3.53;;;18.90;99.90;;;;;;5013868;28;20037;-70
2022/05/27 00:28:03;;;;;;;7.88;4.50;;;19.00;99.90;;;;;;5013352;28;20030;-72
2022/05/27 00:30:29;;;;;;;5.47;3.65;;;19.00;99.90;;;;;;4995900;28;20085;-72
2022/05/27 00:32:56;;;;;;;10.40;4.68;;;19.10;99.90;;;;;;4996020;28;20031;-72
2022/05/27 00:35:22;;;;;;;8.70;3.58;;;19.10;99.90;;;;;;5027592;28;20385;-72
2022/05/27 00:37:48;;;;;;;9.55;4.38;;;19.20;99.90;;;;;;4996930;28;20045;-72
2022/05/27 00:40:15;;;;;;;7.40;3.85;;;19.20;99.90;;;;;;4995963;28;20026;-72
2022/05/27 00:42:43;;;;;;;8.27;3.85;;;19.20;99.90;;;;;;4993125;28;20038;-71
2022/05/27 00:45:19;;;;;;;9.43;3.75;;;19.20;99.90;;;;;;4993187;28;20113;-73
2022/05/27 00:47:48;;;;;;;9.38;4.63;;;19.20;99.90;;;;;;4997253;28;20086;-72
2022/05/27 00:50:17;;;;;;;12.77;4.88;;;19.20;99.90;;;;;;4995535;28;20358;-72
2022/05/27 00:52:45;;;;;;;13.75;6.28;;;19.20;99.90;;;;;;4995742;28;20490;-71
2022/05/27 00:55:16;;;;;;;14.55;5.97;;;19.20;99.90;;;;;;4995495;28;20064;-72
2022/05/27 00:57:50;;;;;;;9.00;5.30;;;19.20;99.90;;;;;;5002173;28;20196;-72
2022/05/27 01:00:19;;;;;;;13.07;6.05;;;19.20;99.90;;;;;;4995412;28;20476;-71
2022/05/27 01:02:46;;;;;;;12.98;5.88;;;19.20;99.90;;;;;;4995514;28;20018;-73
2022/05/27 01:05:15;;;;;;;11.15;5.78;;;19.20;99.90;;;;;;5006038;28;20061;-72
2022/05/27 01:07:41;;;;;;;11.38;4.78;;;19.20;99.90;;;;;;5014379;28;20112;-72
2022/05/27 01:10:11;;;;;;;11.50;5.50;;;19.20;99.90;;;;;;5014857;28;20068;-72
2022/05/27 01:12:58;;;;;;;11.02;5.38;;;19.20;99.90;;;;;;5014609;28;20476;-72
2022/05/27 01:15:48;;;;;;;9.50;4.70;;;19.20;99.90;;;;;;5001090;28;20030;-72
2022/05/27 01:21:31;;;;;;;7.68;4.40;;;19.20;99.90;;;;;;4995104;28;20800;-72
2022/05/27 01:24:22;;;;;;;7.68;3.92;;;19.20;99.90;;;;;;4996012;28;20030;-72
2022/05/27 01:27:03;;;;;;;8.35;4.25;;;19.20;99.90;;;;;;4994850;28;20493;-72
2022/05/27 01:29:57;;;;;;;10.20;3.70;;;19.20;99.90;;;;;;4994729;28;20034;-71
2022/05/27 01:33:14;;;;;;;6.30;3.42;;;19.20;99.90;;;;;;4997879;28;20391;-72
2022/05/27 01:35:58;;;;;;;10.40;4.00;;;19.20;99.90;;;;;;4992310;28;20558;-72
2022/05/27 01:38:42;;;;;;;6.72;3.03;;;19.10;99.90;;;;;;4992203;28;20045;-71
2022/05/27 01:41:17;;;;;;;9.30;3.88;;;19.00;99.90;;;;;;4985503;28;20066;-71
2022/05/27 01:44:08;;;;;;;8.23;3.58;;;18.50;99.90;;;;;;4972969;28;20122;-72
2022/05/27 01:46:40;;;;;;;9.85;3.47;;;18.30;99.90;;;;;;4972313;28;20050;-72
2022/05/27 01:49:42;;;;;;;11.45;4.03;;;18.20;99.90;;;;;;4975636;28;20031;-72
2022/05/27 01:53:05;;;;;;;13.10;5.35;;;18.10;99.90;;;;;;4988984;28;20045;-72
2022/05/27 01:55:53;;;;;;;13.52;5.18;;;18.10;99.90;;;;;;4953181;29;20537;-72
2022/05/27 01:58:27;;;;;;;14.95;5.15;;;18.00;99.90;;;;;;4949385;29;20065;-71
2022/05/27 02:00:54;;;;;;;10.15;5.32;;;17.90;99.90;;;;;;4934031;29;20042;-72
2022/05/27 02:03:26;;;;;;;8.45;4.88;;;17.80;99.90;;;;;;4934451;29;20113;-72
2022/05/27 02:06:01;;;;;;;8.05;4.05;;;17.80;99.90;;;;;;4934173;29;20086;-72
2022/05/27 02:08:36;;;;;;;9.50;4.20;;;17.70;99.90;;;;;;4938395;29;20128;-72
2022/05/27 02:11:06;;;;;;;8.40;4.20;;;17.70;99.90;;;;;;4952824;29;20098;-72
2022/05/27 02:13:54;;;;;;;6.95;3.28;;;17.70;99.90;;;;;;4952971;29;20130;-71
2022/05/27 02:16:31;;;;;;;5.88;3.13;;;17.80;99.90;;;;;;4952924;29;20039;-73
2022/05/27 02:19:04;;;;;;;8.75;4.30;;;17.90;99.90;;;;;;4944521;29;20040;-71
2022/05/27 02:21:57;;;;;;;7.22;3.72;;;17.60;99.90;;;;;;4933514;29;20028;-71
2022/05/27 02:24:36;;;;;;;8.45;3.67;;;17.60;99.90;;;;;;4933831;29;20040;-72
2022/05/27 02:27:08;;;;;;;13.05;3.90;;;17.50;99.90;;;;;;4933016;29;20043;-73
2022/05/27 02:29:35;;;;;;;13.13;3.85;;;17.50;99.90;;;;;;4986239;28;20037;-72
2022/05/27 02:32:12;;;;;;;6.00;3.33;;;17.50;99.90;;;;;;5013138;28;20490;-71
2022/05/27 02:35:07;;;;;;;7.35;3.42;;;17.50;99.90;;;;;;5013384;28;20029;-71
2022/05/27 02:37:55;;;;;;;10.48;3.47;;;17.50;99.90;;;;;;5012946;28;20088;-73
2022/05/27 02:40:24;;;;;;;6.00;3.33;;;17.50;99.90;;;;;;4993796;28;20042;-73
2022/05/27 02:43:05;;;;;;;7.78;3.78;;;17.60;99.90;;;;;;4993473;28;20077;-72
2022/05/27 02:45:44;;;;;;;11.55;4.13;;;17.50;99.90;;;;;;4993681;28;20029;-73
2022/05/27 02:48:38;;;;;;;5.63;3.30;;;17.50;99.90;;;;;;5007874;28;20052;-72
2022/05/27 02:51:16;;;;;;;6.15;3.50;;;17.50;99.90;;;;;;5012928;28;20034;-72
2022/05/27 02:54:09;;;;;;;7.78;3.60;;;17.70;99.90;;;;;;5011239;28;20026;-72
2022/05/27 02:56:48;;;;;;;;;;;17.40;99.90;;;;;;5011308;28;20073;-72
2022/05/27 02:59:17;;;;;;;6.03;3.50;;;17.20;99.90;;;;;;4993066;28;19918;-73
2022/05/27 03:01:47;;;;;;;9.70;3.88;;;17.20;99.90;;;;;;4993093;28;20022;-72
2022/05/27 03:04:14;;;;;;;8.32;3.58;;;17.20;99.90;;;;;;4993027;28;20033;-72
2022/05/27 03:07:11;;;;;;;6.70;3.30;;;17.20;99.90;;;;;;4994762;28;20030;-72
2022/05/27 03:10:09;;;;;;;8.40;3.60;;;17.10;99.90;;;;;;5012661;28;20029;-72
2022/05/27 03:12:44;;;;;;;8.40;3.65;;;17.10;99.90;;;;;;4989146;28;20095;-71
2022/05/27 03:15:33;;;;;;;11.63;4.15;;;17.10;99.90;;;;;;4992751;28;20146;-72
2022/05/27 03:18:32;;;;;;;6.38;3.65;;;17.10;99.90;;;;;;5000805;28;20034;-72
2022/05/27 03:21:08;;;;;;;8.55;4.05;;;17.20;99.90;;;;;;5012695;28;20041;-72
2022/05/27 03:23:58;;;;;;;8.60;3.70;;;17.30;99.90;;;;;;5012809;28;20057;-73
2022/05/27 03:26:58;;;;;;;11.88;4.63;;;17.30;99.90;;;;;;4999189;28;20038;-72
2022/05/27 03:29:32;;;;;;;12.25;4.20;;;17.40;99.90;;;;;;4992674;28;20030;-73
2022/05/27 03:32:29;;;;;;;5.18;3.20;;;17.40;99.90;;;;;;4992836;28;20092;-73
2022/05/27 03:35:21;;;;;;;10.30;4.20;;;17.30;99.90;;;;;;4993212;28;20113;-70
2022/05/27 03:38:14;;;;;;;14.03;4.27;;;17.40;99.90;;;;;;4993735;28;20031;-72
2022/05/27 03:41:00;;;;;;;16.95;4.30;;;17.50;99.90;;;;;;4996074;28;20394;-72
2022/05/27 03:43:27;;;;;;;15.40;4.95;;;17.40;99.90;;;;;;5012803;28;20044;-71
2022/05/27 03:45:56;;;;;;;10.60;3.85;;;17.50;99.90;;;;;;5015336;28;20168;-71
2022/05/27 03:48:24;;;;;;;10.63;4.75;;;17.40;99.90;;;;;;4995886;28;20112;-73
2022/05/27 03:50:52;;;;;;;8.82;3.85;;;17.50;99.90;;;;;;4996191;28;20607;-72
2022/05/27 03:53:19;;;;;;;9.10;4.50;;;17.40;99.90;;;;;;4996120;28;20037;-73
2022/05/27 03:55:44;;;;;;;11.35;4.47;;;17.40;99.90;;;;;;4996292;28;20035;-73
2022/05/27 03:58:12;;;;;;;10.65;4.15;;;17.40;99.90;;;;;;4996419;28;20109;-72
2022/05/27 04:00:39;;;;;;;12.73;4.28;;;17.30;99.90;;;;;;4996296;28;20026;-72
2022/05/27 04:03:05;;;;;;;10.18;4.50;;;17.30;99.90;;;;;;4995861;28;20062;-71
2022/05/27 04:05:31;;;;;;;8.70;4.10;;;17.30;99.90;;;;;;4995801;28;20018;-72
2022/05/27 04:07:57;;;;;;;7.25;4.20;;;17.30;99.90;;;;;;4996380;28;20100;-71
2022/05/27 04:10:23;;;;;;;7.80;4.22;;;17.40;99.90;;;;;;4995823;28;20026;-71
2022/05/27 04:12:49;;;;;;;10.93;4.47;;;17.40;99.90;;;;;;4995751;28;20034;-72
2022/05/27 04:15:14;;;;;;;23.70;4.68;;;17.80;99.90;;;;;;5008442;28;20033;-74
2022/05/27 04:17:42;;;;;;;11.10;4.35;;;18.70;99.90;;;;;;4995159;28;20480;-70
2022/05/27 04:20:11;;;;;;;8.38;4.20;;;19.40;99.90;;;;;;4995805;28;20042;-66
2022/05/27 04:22:38;;;;;;;7.93;3.47;;;20.00;99.90;;;;;;4995684;28;20026;-71
2022/05/27 04:25:05;;;;;;;12.95;4.57;;;20.60;99.90;;;;;;5007701;28;20104;-72
2022/05/27 04:27:32;;;;;;;11.73;3.58;;;21.00;99.90;;;;;;5014544;28;20030;-68
2022/05/27 04:29:58;;;;;;;6.07;3.80;;;21.20;99.90;;;;;;5014790;28;20018;-71
2022/05/27 04:32:25;;;;;;;6.82;3.80;;;21.00;99.90;;;;;;5014921;28;20045;-72
2022/05/27 04:34:54;;;;;;;8.13;4.10;;;20.60;99.90;;;;;;5004787;28;20027;-72
2022/05/27 04:37:22;;;;;;;7.88;3.65;;;21.20;99.90;;;;;;4993129;28;20037;-73
2022/05/27 04:39:48;;;;;;;7.13;3.95;;;21.50;99.90;;;;;;4992531;28;20073;-72
2022/05/27 04:42:14;;;;;;;5.00;3.60;;;20.80;99.90;;;;;;4995787;28;20034;-73
2022/05/27 04:44:41;;;;;;;7.05;4.28;;;21.30;99.90;;;;;;4994100;28;20097;-72
2022/05/27 04:47:07;;;;;;;11.95;5.03;;;21.20;99.90;;;;;;4991428;28;20121;-72
2022/05/27 04:49:51;;;;;;;9.13;4.10;;;21.30;99.90;;;;;;5005217;28;20168;-72
2022/05/27 04:52:29;;;;;;;11.30;4.53;;;21.70;99.90;;;;;;5014904;28;20060;-72
2022/05/27 04:54:57;;;;;;;9.63;3.80;;;21.60;99.90;;;;;;5012298;28;20068;-72
2022/05/27 04:57:27;;;;;;;22.92;4.43;;;21.00;99.90;;;;;;5014345;28;20551;-73
2022/05/27 04:59:53;;;;;;;22.52;5.80;;;21.20;99.90;;;;;;5014558;28;20120;-73
2022/05/27 05:02:21;;;;;;;14.00;5.07;;;21.50;99.90;;;;;;5012140;28;20031;-68
2022/05/27 05:04:48;;;;;;;12.48;4.32;;;21.50;99.90;;;;;;5007328;28;20033;-72
2022/05/27 05:07:14;;;;;;;11.00;4.85;;;21.40;99.90;;;;;;5014066;28;20040;-72
2022/05/27 05:09:42;;;;;;;10.52;5.07;;;21.00;99.90;;;;;;5014140;28;20041;-72
2022/05/27 05:12:10;;;;;;;13.40;5.78;;;20.60;99.90;;;;;;5014030;28;20112;-71
2022/05/27 05:14:36;;;;;;;8.70;3.80;;;20.80;99.90;;;;;;5013161;28;20109;-73
2022/05/27 05:17:02;;;;;;;9.57;4.32;;;21.30;99.90;;;;;;5013741;28;20157;-72
2022/05/27 05:19:27;;;;;;;8.40;4.75;;;21.80;99.90;;;;;;5013805;28;20203;-72
2022/05/27 05:21:53;;;;;;;9.07;4.57;;;21.40;99.90;;;;;;5014115;28;20033;-72
2022/05/27 05:24:19;;;;;;;9.52;4.90;;;21.60;99.90;;;;;;5007131;28;20022;-73
2022/05/27 05:26:48;;;;;;;12.77;5.35;;;21.70;99.90;;;;;;4994532;28;20120;-72
2022/05/27 05:29:14;;;;;;;11.77;5.22;;;21.80;99.90;;;;;;4994353;28;20707;-73
2022/05/27 05:31:39;;;;;;;8.85;4.60;;;22.10;99.90;;;;;;4994481;28;20076;-73
2022/05/27 05:34:05;;;;;;;11.55;5.30;;;21.70;99.90;;;;;;5012125;28;20045;-72
2022/05/27 05:36:34;;;;;;;25.27;6.18;;;21.40;99.90;;;;;;5013653;28;20045;-73
2022/05/27 05:39:00;;;;;;;9.57;4.88;;;21.30;99.90;;;;;;4997178;28;20073;-72
2022/05/27 05:41:34;;;;;;;11.10;4.90;;;21.10;99.90;;;;;;4993983;28;20034;-73
2022/05/27 05:44:00;;;;;;;18.40;5.80;;;21.70;99.90;;;;;;4994205;28;20451;-73
2022/05/27 05:46:27;;;;;;;12.93;5.40;;;22.00;99.90;;;;;;5021447;28;20069;-73
2022/05/27 05:48:54;;;;;;;13.00;5.68;;;21.60;99.90;;;;;;5013427;28;20060;-73
2022/05/27 05:51:20;;;;;;;14.13;5.97;;;21.40;99.90;;;;;;5013419;28;20053;-73
2022/05/27 05:53:46;;;;;;;13.13;5.45;;;21.80;99.90;;;;;;5013465;28;20491;-72
2022/05/27 05:56:13;;;;;;;10.32;5.32;;;22.00;99.90;;;;;;5004381;28;20022;-72
2022/05/27 05:58:39;;;;;;;11.38;5.53;;;22.30;99.90;;;;;;4993859;28;20037;-74
2022/05/27 06:01:05;;;;;;;13.18;5.25;;;22.10;99.90;;;;;;4993336;28;20030;-73
2022/05/27 06:03:31;;;;;;;11.02;5.20;;;22.40;99.90;;;;;;4998610;28;20084;-74
2022/05/27 06:05:57;;;;;;;8.75;5.00;;;22.50;99.10;;;;;;5013281;28;20380;-71
2022/05/27 06:08:22;;;;;;;10.07;4.93;;;22.50;99.10;;;;;;5013264;28;20029;-73
2022/05/27 06:10:48;;;;;;;9.38;4.63;;;22.70;99.30;;;;;;5013104;28;20099;-73
2022/05/27 06:13:15;;;;;;;8.30;4.50;;;22.30;99.40;;;;;;5010090;28;20026;-73
2022/05/27 06:15:41;;;;;;;9.57;4.63;;;22.70;99.60;;;;;;4993443;28;20022;-73
2022/05/27 06:18:07;;;;;;;7.82;4.20;;;22.70;99.90;;;;;;4992991;28;20109;-74
2022/05/27 06:20:35;;;;;;;11.50;4.90;;;22.60;98.00;;;;;;4993453;28;20105;-73
2022/05/27 06:23:05;;;;;;;7.13;3.78;;;23.10;97.70;;;;;;4993720;28;20164;-73
2022/05/27 06:25:31;;;;;;;8.35;4.15;;;22.70;99.30;;;;;;4996652;28;20472;-73
2022/05/27 06:36:12;;;;;;;7.10;3.90;;;24.20;93.40;;;;;;4993730;28;20034;-74
2022/05/27 06:38:38;;;;;;;7.68;4.47;;;23.80;93.70;;;;;;4994210;28;20092;-73
2022/05/27 06:41:04;;;;;;;11.05;3.78;;;24.20;93.40;;;;;;4992770;28;20026;-73
2022/05/27 06:43:31;;;;;;;10.65;4.15;;;24.60;93.10;;;;;;4993137;28;20547;-73
2022/05/27 06:45:58;;;;;;;9.02;3.78;;;24.50;90.60;;;;;;4993180;28;20499;-74
2022/05/27 06:48:24;;;;;;;6.80;3.30;;;24.40;90.00;;;;;;4992697;28;20082;-73
2022/05/27 06:50:50;;;;;;;9.82;3.88;;;24.50;90.70;;;;;;4994686;28;20077;-72
2022/05/27 06:53:16;;;;;;;6.28;3.60;;;24.30;90.10;;;;;;4993092;28;20519;-73
2022/05/27 06:55:47;;;;;;;13.32;3.83;;;24.20;90.90;;;;;;4992685;28;20052;-74
2022/05/27 06:58:12;;;;;;;7.03;3.72;;;24.00;90.00;;;;;;4992416;28;20038;-72
2022/05/27 07:00:38;;;;;;;7.35;4.15;;;23.90;91.60;;;;;;4992185;28;20109;-70
2022/05/27 07:03:05;;;;;;;7.15;3.72;;;24.70;92.30;;;;;;5004072;28;20472;-73
2022/05/27 07:05:31;;;;;;;9.55;3.25;;;24.80;89.90;;;;;;4994531;28;20026;-73
2022/05/27 07:07:58;;;;;;;6.80;3.75;;;25.30;90.00;;;;;;4991762;28;20393;-73
2022/05/27 07:10:24;;;;;;;9.57;4.10;;;25.00;84.60;;;;;;4991370;28;20058;-73
2022/05/27 07:12:50;;;;;;;9.80;4.07;;;25.60;84.40;;;;;;4991098;28;20073;-73
2022/05/27 07:15:16;;;;;;;5.93;3.83;;;25.00;82.90;;;;;;4991606;28;20077;-74
2022/05/27 07:17:42;;;;;;;7.22;3.50;;;25.20;84.90;;;;;;4991206;28;20022;-73
2022/05/27 07:20:09;;;;;;;7.40;3.15;;;25.40;82.70;;;;;;4991121;28;20077;-74
2022/05/27 07:22:35;;;;;;;7.43;3.85;;;25.90;81.40;;;;;;5004450;28;20092;-74
2022/05/27 07:25:01;;;;;;;10.68;3.70;;;25.70;78.80;;;;;;5010219;28;20022;-73
2022/05/27 07:27:26;;;;;;;5.28;3.28;;;25.40;79.60;;;;;;5004364;28;20041;-74
2022/05/27 07:29:52;;;;;;;9.20;3.25;;;25.30;78.20;;;;;;4991692;28;20065;-73
2022/05/27 07:32:18;;;;;;;7.75;2.75;;;25.20;78.10;;;;;;4993256;28;20034;-73
2022/05/27 07:34:47;;;;;;;15.82;4.90;;;25.50;77.40;;;;;;5011136;28;20388;-74
2022/05/27 07:37:13;;;;;;;13.30;3.45;;;25.80;77.90;;;;;;5011070;28;20480;-74
2022/05/27 07:39:39;;;;;;;3.75;2.33;;;26.10;75.10;;;;;;5011575;28;20120;-75
2022/05/27 07:42:05;;;;;;;6.68;2.75;;;26.10;73.70;;;;;;5010866;28;20067;-74
2022/05/27 07:44:31;;;;;;;5.72;2.53;;;26.30;74.70;;;;;;5008179;28;20105;-74
2022/05/27 07:46:57;;;;;;;7.18;2.20;;;26.40;72.40;;;;;;4991141;28;20058;-75
2022/05/27 07:49:23;;;;;;;6.53;2.30;;;26.40;70.30;;;;;;4989294;28;20037;-71
2022/05/27 07:51:48;;;;;;;4.90;2.50;;;26.40;71.10;;;;;;4991675;28;20073;-75
2022/05/27 07:54:14;;;;;;;5.03;2.35;;;26.50;69.30;;;;;;4991051;28;20046;-71
2022/05/27 07:56:42;;;;;;;7.10;2.10;;;27.00;70.80;;;;;;4991527;28;20504;-73
2022/05/27 07:59:08;;;;;;;5.07;2.30;;;27.20;68.90;;;;;;4991392;28;20076;-73
2022/05/27 08:01:36;;;;;;;3.80;2.13;;;27.20;67.70;;;;;;4997414;28;20046;-71
2022/05/27 08:04:04;;;;;;;5.55;2.13;;;27.30;66.90;;;;;;5010641;28;20132;-75
2022/05/27 08:06:30;;;;;;;8.93;3.15;;;27.50;66.60;;;;;;5025025;28;20050;-74
2022/05/27 08:08:56;;;;;;;2.90;1.95;;;27.60;66.00;;;;;;5010087;28;20026;-71
2022/05/27 08:11:21;;;;;;;5.50;1.80;;;27.90;66.90;;;;;;4991100;28;20049;-76
2022/05/27 08:13:47;;;;;;;5.07;2.10;;;27.20;65.20;;;;;;4991184;28;20109;-75
2022/05/27 08:16:13;;;;;;;4.93;2.03;;;26.70;64.50;;;;;;4990540;28;20026;-74
2022/05/27 08:18:39;;;;;;;7.45;2.25;;;27.00;64.30;;;;;;4990659;28;20044;-75
2022/05/27 08:21:05;;;;;;;3.50;1.98;;;27.50;65.20;;;;;;4990445;28;20046;-75
2022/05/27 08:23:30;;;;;;;7.30;1.90;;;27.30;64.30;;;;;;4991589;28;20026;-76
2022/05/27 08:25:58;;;;;;;4.85;2.35;;;27.40;65.10;;;;;;4998208;28;20032;-74
2022/05/27 08:28:24;;;;;;;5.85;1.95;;;26.90;64.50;;;;;;5013517;28;20025;-75
2022/05/27 08:30:51;;;;;;;13.50;2.15;;;27.20;65.70;;;;;;5014351;28;20117;-75
2022/05/27 08:33:17;;;;;;;9.65;2.40;;;26.70;66.40;;;;;;4998737;28;20037;-74
2022/05/27 08:38:30;;;;;;;4.18;2.10;;;27.60;64.60;;;;;;4995306;28;20374;-76
2022/05/27 08:41:14;;;;;;;4.25;2.17;;;27.70;64.10;;;;;;4998830;28;20372;-74
2022/05/27 08:43:55;;;;;;;5.95;2.15;;;27.70;63.60;;;;;;5013772;28;20034;-73
2022/05/27 08:46:45;;;;;;;8.70;2.20;;;27.50;63.80;;;;;;5013510;28;20087;-74
2022/05/27 08:49:38;;;;;;;5.13;2.00;;;27.30;62.90;;;;;;5011883;28;20408;-75
2022/05/27 08:52:31;;;;;;;4.07;1.75;;;27.60;62.00;;;;;;4985188;28;20034;-71
2022/05/27 08:59:26;;;;;;;6.20;1.95;;;27.50;61.20;;;;;;4934108;29;20043;-74
2022/05/27 09:01:05;;;;;;;4.88;2.22;;;27.90;62.00;;;;;;4933487;29;20055;-75
2022/05/27 09:03:38;;;;;;;7.50;2.70;;;27.90;60.40;;;;;;4934485;29;20035;-73
2022/05/27 09:06:05;;;;;;;3.20;1.95;;;28.60;62.50;;;;;;4939640;29;20558;-72
2022/05/27 09:08:32;;;;;;;4.65;1.88;;;28.30;61.10;;;;;;4933181;29;20036;-73
2022/05/27 09:11:27;;;;;;;3.08;1.73;;;28.50;62.60;;;;;;4939185;29;20475;-70
2022/05/27 09:13:56;;;;;;;2.25;1.73;;;28.70;60.40;;;;;;4931597;29;20039;-73
2022/05/27 09:16:25;;;;;;;2.97;1.83;;;28.70;61.80;;;;;;4932656;29;20120;-75
2022/05/27 09:19:00;;;;;;;10.45;2.10;;;28.70;61.10;;;;;;4932780;29;20051;-75
2022/05/27 09:21:41;;;;;;;3.80;1.70;;;28.90;65.10;;;;;;4934558;29;20032;-75
2022/05/27 09:24:33;;;;;;;7.55;2.40;;;28.60;63.80;;;;;;4924391;29;20059;-73
2022/05/27 09:27:07;;;;;;;5.60;2.42;;;28.70;62.70;;;;;;4895066;29;20063;-73
2022/05/27 09:29:54;;;;;;;3.70;1.75;;;28.90;60.80;;;;;;4882553;29;20044;-65
2022/05/27 09:32:49;;;;;;;3.13;1.75;;;27.90;61.50;;;;;;4915007;29;20047;-63
2022/05/27 09:35:25;;;;;;;3.38;1.85;;;28.90;63.80;;;;;;4932546;29;20032;-74
2022/05/27 09:37:54;;;;;;;2.85;1.77;;;28.60;61.10;;;;;;4932623;29;20544;-70
2022/05/27 09:40:25;;;;;;;14.80;2.75;;;28.00;60.40;;;;;;4933333;28;20164;-64
2022/05/27 09:43:33;;;;;;;4.25;2.20;;;28.10;61.20;;;;;;4933351;29;20036;-63
2022/05/27 09:46:02;;;;;;;3.33;1.60;;;28.80;61.90;;;;;;4932798;29;20572;-63
2022/05/27 09:48:28;;;;;;;6.78;2.47;;;28.80;61.00;;;;;;4932724;29;20082;-71
2022/05/27 09:50:57;;;;;;;5.45;1.83;;;29.00;60.60;;;;;;4932529;29;20394;-72
2022/05/27 09:53:31;;;;;;;3.78;2.00;;;29.00;60.00;;;;;;4932478;28;20031;-72
2022/05/27 09:56:05;;;;;;;6.85;2.15;;;28.80;61.60;;;;;;4932611;28;20113;-75
2022/05/27 09:58:37;;;;;;;4.72;2.15;;;28.90;61.00;;;;;;4932873;29;20219;-73
2022/05/27 10:01:21;;;;;;;4.15;1.70;;;28.90;62.10;;;;;;4932532;29;20056;-74
2022/05/27 10:04:04;;;;;;;3.35;1.88;;;27.70;59.60;;;;;;4948980;28;20387;-74
2022/05/27 10:06:34;;;;;;;5.60;2.25;;;28.80;59.80;;;;;;4973928;28;20436;-74
2022/05/27 10:09:05;;;;;;;2.70;1.63;;;29.10;60.00;;;;;;4973539;28;20062;-73
2022/05/27 10:11:46;;;;;;;13.07;2.35;;;28.70;60.00;;;;;;4973565;28;20113;-72
2022/05/27 10:14:20;;;;;;;9.40;2.35;;;29.00;60.50;;;;;;4974295;28;20027;-75
2022/05/27 10:17:01;;;;;;;3.63;2.13;;;29.00;59.30;;;;;;4972997;28;20031;-71
2022/05/27 10:19:28;;;;;;;2.83;1.70;;;29.40;59.20;;;;;;4973568;28;20034;-73
2022/05/27 10:22:00;;;;;;;5.53;1.90;;;29.20;59.30;;;;;;4988294;28;20423;-73
2022/05/27 10:24:40;;;;;;;2.47;1.85;;;29.40;59.10;;;;;;4973311;28;20377;-74
2022/05/27 10:27:20;;;;;;;3.20;1.45;;;29.20;59.00;;;;;;4972844;28;20080;-75
2022/05/27 10:29:52;;;;;;;3.95;2.20;;;29.00;59.30;;;;;;4973443;28;20031;-75
2022/05/27 10:32:26;;;;;;;5.93;1.90;;;28.80;59.70;;;;;;4972585;28;20137;-74
2022/05/27 10:34:52;;;;;;;6.50;1.85;;;29.00;60.10;;;;;;4972943;28;20055;-75
2022/05/27 10:37:18;;;;;;;7.05;2.22;;;29.10;60.60;;;;;;4973103;28;20418;-73
2022/05/27 10:39:57;;;;;;;12.10;2.70;;;28.80;59.90;;;;;;4973222;28;20027;-74
2022/05/27 10:42:26;;;;;;;4.97;2.45;;;29.20;61.20;;;;;;4973173;28;20038;-75
2022/05/27 10:45:02;;;;;;;13.13;3.00;;;29.00;58.80;;;;;;4973079;28;20145;-75
2022/05/27 10:47:46;;;;;;;3.85;2.15;;;29.10;60.20;;;;;;4972473;28;20255;-73
2022/05/27 10:50:31;;;;;;;3.17;1.85;;;29.20;59.30;;;;;;4973082;28;20038;-73
2022/05/27 10:53:24;;;;;;;5.13;2.10;;;29.30;60.40;;;;;;4972515;28;20034;-74
2022/05/27 10:56:08;;;;;;;5.57;2.15;;;29.50;59.90;;;;;;4972726;28;20035;-74
2022/05/27 11:02:14;;;;;;;8.68;2.03;;;29.70;59.30;;;;;;4972576;28;20027;-72
2022/05/27 11:05:21;;;;;;;4.97;2.75;;;29.90;59.20;;;;;;4981728;28;20030;-75
2022/05/27 11:08:02;;;;;;;3.42;1.77;;;29.80;60.10;;;;;;4988813;28;20054;-71
2022/05/27 11:10:37;;;;;;;5.47;2.50;;;29.80;59.10;;;;;;4989056;28;20042;-75
2022/05/27 11:16:16;;;;;;;;;;;29.60;60.10;;;;;;4970001;28;20516;-76
2022/05/27 11:18:45;;;;;;;6.50;2.22;;;29.60;59.90;;;;;;4969692;28;20323;-73
2022/05/27 11:21:36;;;;;;;6.93;2.50;;;29.20;58.80;;;;;;4969575;28;20033;-74
2022/05/27 11:24:14;;;;;;;4.47;2.45;;;29.40;59.00;;;;;;4968824;28;20054;-73
2022/05/27 11:27:10;;;;;;;4.18;2.50;;;29.40;59.50;;;;;;4969756;28;20046;-75
2022/05/27 11:29:38;;;;;;;2.90;2.00;;;29.50;59.10;;;;;;4978959;28;20022;-73
2022/05/27 11:32:25;;;;;;;5.82;2.25;;;29.60;58.20;;;;;;4992522;28;20114;-74
2022/05/27 11:35:12;;;;;;;3.65;2.15;;;29.30;59.30;;;;;;4981375;28;20026;-74
2022/05/27 11:37:57;;;;;;;9.00;2.33;;;29.70;60.20;;;;;;4988430;28;20224;-70
2022/05/27 11:40:52;;;;;;;2.85;2.30;;;29.70;59.50;;;;;;4985044;28;20037;-74
2022/05/27 11:43:45;;;;;;;3.92;1.95;;;29.80;58.60;;;;;;4998197;28;20453;-74
2022/05/27 11:46:43;;;;;;;5.15;2.10;;;30.00;59.20;;;;;;4985925;28;20031;-74
2022/05/27 11:49:35;;;;;;;5.65;2.10;;;30.10;59.10;;;;;;4973818;28;20530;-63
2022/05/27 11:52:49;;;;;;;4.82;2.38;;;29.90;58.10;;;;;;4978663;28;20057;-74
2022/05/27 11:55:32;;;;;;;7.32;2.53;;;30.20;59.90;;;;;;4989360;28;20110;-73
2022/05/27 11:58:35;;;;;;;5.20;2.63;;;30.50;59.80;;;;;;4992151;28;20041;-64
2022/05/27 12:01:26;;;;;;;5.20;2.00;;;29.70;58.40;;;;;;4989148;28;20528;-73
2022/05/27 12:04:02;;;;;;;11.43;3.47;;;29.70;58.20;;;;;;4992795;28;20027;-71
2022/05/27 12:06:48;;;;;;;5.68;2.65;;;29.60;59.20;;;;;;4990950;28;20054;-71
2022/05/27 12:09:25;;;;;;;4.35;2.20;;;29.50;59.20;;;;;;4990445;28;20031;-66
2022/05/27 12:12:06;;;;;;;2.33;1.88;;;29.60;59.70;;;;;;4987150;28;20049;-71
2022/05/27 12:14:44;;;;;;;7.63;2.35;;;29.70;59.10;;;;;;4987848;28;20501;-73
2022/05/27 12:17:14;;;;;;;7.85;3.03;;;29.50;59.60;;;;;;4973319;28;20042;-72
2022/05/27 12:19:44;;;;;;;4.18;2.47;;;29.60;59.90;;;;;;4962067;28;20038;-72
2022/05/27 12:22:18;;;;;;;7.07;2.47;;;30.00;60.50;;;;;;4992413;28;20034;-71
2022/05/27 12:24:51;;;;;;;3.95;2.28;;;30.10;59.00;;;;;;4993024;28;20401;-71
2022/05/27 12:27:19;;;;;;;4.85;1.83;;;30.00;59.00;;;;;;4992328;28;20077;-74
2022/05/27 12:29:50;;;;;;;8.15;2.80;;;30.10;59.20;;;;;;4989163;28;20033;-73
2022/05/27 12:32:18;;;;;;;2.78;2.40;;;29.70;59.80;;;;;;4993644;28;20053;-72
2022/05/27 12:34:45;;;;;;;7.75;2.38;;;29.70;60.20;;;;;;4998328;28;20121;-71
2022/05/27 12:37:21;;;;;;;8.55;2.30;;;29.70;60.10;;;;;;4994859;28;20384;-72
2022/05/27 12:39:49;;;;;;;4.88;2.45;;;29.60;59.80;;;;;;5009403;28;20056;-73
2022/05/27 12:42:33;;;;;;;9.23;2.63;;;29.90;60.00;;;;;;5007284;28;20057;-72
2022/05/27 12:45:23;;;;;;;4.85;2.63;;;29.80;59.40;;;;;;5012019;28;20034;-72
2022/05/27 12:47:54;;;;;;;4.35;2.35;;;29.70;59.40;;;;;;5009862;28;20042;-72
2022/05/27 12:50:32;;;;;;;10.63;2.90;;;29.70;61.10;;;;;;4993438;28;20029;-73
2022/05/27 12:53:16;;;;;;;4.53;2.55;;;30.10;60.90;;;;;;4986233;28;20755;-65
2022/05/27 13:01:42;;;;;;;76.72;51.38;;;30.40;60.20;;;;;;5014429;28;20033;-74
2022/05/27 13:04:46;;;;;;;23.17;11.18;;;30.40;60.00;;;;;;4998086;28;20073;-72
2022/05/27 13:07:14;;;;;;;11.40;4.97;;;30.30;60.40;;;;;;4973509;28;20039;-72
2022/05/27 13:09:44;;;;;;;16.08;6.25;;;30.00;59.30;;;;;;4979924;28;20042;-72
2022/05/27 13:12:30;;;;;;;42.83;23.10;;;30.10;59.70;;;;;;4981981;28;20098;-73
2022/05/27 13:15:06;;;;;;;12.73;6.10;;;30.10;59.70;;;;;;4974967;28;20106;-72
2022/05/27 13:17:42;;;;;;;10.15;2.85;;;30.00;59.60;;;;;;4988448;28;20040;-71
2022/05/27 13:20:20;;;;;;;9.10;3.95;;;30.10;59.60;;;;;;4994022;28;20493;-71
2022/05/27 13:23:16;;;;;;;10.05;4.05;;;30.20;60.20;;;;;;4990443;28;20033;-70
2022/05/27 13:26:02;;;;;;;6.63;3.55;;;30.20;60.20;;;;;;4996169;28;20027;-74
2022/05/27 13:28:32;;;;;;;5.80;2.58;;;30.30;59.80;;;;;;5002910;28;20034;-73
2022/05/27 13:31:01;;;;;;;11.57;4.13;;;30.50;60.00;;;;;;5005749;28;20092;-75
2022/05/27 13:33:41;;;;;;;13.18;3.40;;;30.20;64.20;;;;;;4994066;28;20026;-76
2022/05/27 13:36:22;;;;;;;6.13;2.83;;;30.10;60.10;;;;;;4991667;28;20076;-64
2022/05/27 13:39:05;;;;;;;11.02;3.42;;;30.40;60.60;;;;;;4992056;28;20066;-75
2022/05/27 13:41:41;;;;;;;8.02;2.92;;;30.10;60.10;;;;;;4993863;28;20045;-73
2022/05/27 13:44:11;;;;;;;4.68;2.83;;;30.00;59.60;;;;;;4993022;28;20034;-74
2022/05/27 13:46:44;;;;;;;8.18;3.30;;;30.10;59.60;;;;;;4993259;28;20138;-74
2022/05/27 13:49:31;;;;;;;5.80;2.70;;;30.00;60.10;;;;;;4993660;28;20106;-75